Decoded Metar for LFOT (TOURS in FRANCE) (IATA:TUF) | Meteo·Mobile Aviation Weather
aviador You're here:

LFOT Decoded Metar

TOURS in FRANCE
Report Time2019-02-22 00:00:00
UTC Time2019-02-22 00:20:04
Flight Rules vfr VFR
Wind050° at 02 kt
W.Decomp.*RWY 02: 1.7 kt HW 1.0 kt RCW
W.Rank050° ranks 8
Current wind is below 050° avg. (6.7)
Visibility9999 m
Phenomena:N/A
Clouds:N/A
Expected CloudBase > 1,200 ft AGL from Temp-Dew spread
CeilingNone
Temp06°C (ISA -8)
Dew Point03°C (81% RH)
AAT3.8°C
QNH1032 hPa
Density Alt-1,184 ft
Elevation354 ft
Report Wrong Elevation
Raw Report
LFOT 220000Z AUTO 05002KT CAVOK 06/03 Q1032 BECMG 3000 BR=

Extra information for LFOT:More info

Metar Taf Metar & Taf Last 4 Metars F.Rules Stats Wind Profile Meteogram Temp Stats Airport Information Weather charts Add Link Nearby VenuesMetar ALERT Operation Metar Decoded Social comments